WAMW/LUW METAR and TAF weather

Enter ICAO airport designator
Station Type Date Time Source
WAMW METAR UTC NOAA

Error!


Station Type Date Time Source
WAMW Decoded METAR UTC NOAA

Error!

Station Type Date Time Source
WAMW TAF 2014/05/01 06:33 UTC NOAA

TAF WAMW 010500Z 0106/0118 11004KT 9999 SCT020


Example: see airport list